createdAt,value
2019-02-20T00:02:01.377Z,6.80
2019-02-20T00:07:07.003Z,7.03
2019-02-20T00:12:11.357Z,7.04
2019-02-20T00:17:15.706Z,7.13
2019-02-20T00:22:20.062Z,7.08
2019-02-20T00:27:24.416Z,6.88
2019-02-20T00:32:28.777Z,6.77
2019-02-20T00:37:33.112Z,6.66
2019-02-20T00:42:37.459Z,6.67
2019-02-20T00:47:52.446Z,6.66
2019-02-20T00:52:58.468Z,6.89
2019-02-20T00:58:02.819Z,6.69
2019-02-20T01:03:07.212Z,6.77
2019-02-20T01:08:11.637Z,6.83
2019-02-20T01:13:15.986Z,6.97
2019-02-20T01:18:20.364Z,6.82
2019-02-20T01:23:24.754Z,6.81
2019-02-20T01:28:29.114Z,6.81
2019-02-20T01:33:33.486Z,6.69
2019-02-20T01:38:38.618Z,6.83
2019-02-20T01:43:42.970Z,7.03
2019-02-20T01:48:47.326Z,6.68
2019-02-20T01:53:51.772Z,6.58
2019-02-20T01:58:56.117Z,6.52
2019-02-20T02:04:00.547Z,6.41
2019-02-20T02:09:06.840Z,6.24
2019-02-20T02:14:12.189Z,6.13
2019-02-20T02:19:16.699Z,6.25
2019-02-20T02:24:21.066Z,6.10
2019-02-20T02:29:25.499Z,6.20
2019-02-20T02:34:29.826Z,5.98
2019-02-20T02:39:34.212Z,6.15
2019-02-20T02:44:38.596Z,6.13
2019-02-20T02:49:42.954Z,5.91
2019-02-20T02:54:47.354Z,6.01
2019-02-20T02:59:51.817Z,6.00
2019-02-20T03:04:57.240Z,5.83
2019-02-20T03:10:01.607Z,5.92
2019-02-20T03:15:09.383Z,5.71
2019-02-20T03:20:13.743Z,5.74
2019-02-20T03:25:18.202Z,5.77
2019-02-20T03:30:22.557Z,5.70
2019-02-20T03:35:26.957Z,5.89
2019-02-20T03:40:31.362Z,5.88
2019-02-20T03:45:36.221Z,5.89
2019-02-20T03:50:40.621Z,5.80
2019-02-20T03:55:44.986Z,5.72
2019-02-20T04:00:49.357Z,5.79
2019-02-20T04:05:53.736Z,5.64
2019-02-20T04:10:58.110Z,5.53
2019-02-20T04:16:02.542Z,5.57
2019-02-20T04:21:06.902Z,5.52
2019-02-20T04:26:11.254Z,5.61
2019-02-20T04:31:15.644Z,5.43
2019-02-20T04:36:20.026Z,5.30
2019-02-20T04:41:24.429Z,5.21
2019-02-20T04:46:28.777Z,5.09
2019-02-20T04:51:33.161Z,5.10
2019-02-20T04:56:37.515Z,5.58
2019-02-20T05:01:41.876Z,5.45
2019-02-20T05:06:46.253Z,5.32
2019-02-20T05:11:50.670Z,5.19
2019-02-20T05:16:55.081Z,5.05
2019-02-20T05:21:59.584Z,5.35
2019-02-20T05:27:04.035Z,5.05
2019-02-20T05:32:08.408Z,5.19
2019-02-20T05:37:12.771Z,5.29
2019-02-20T05:42:18.274Z,5.43
2019-02-20T05:47:22.560Z,5.51
2019-02-20T05:52:26.916Z,5.46
2019-02-20T05:57:31.298Z,5.52
2019-02-20T06:02:35.687Z,5.92
2019-02-20T06:07:40.075Z,5.71
2019-02-20T06:12:44.472Z,6.00
2019-02-20T06:17:48.734Z,6.09
2019-02-20T06:22:53.137Z,5.94
2019-02-20T06:27:57.491Z,6.16
2019-02-20T06:33:02.157Z,6.21
2019-02-20T06:38:06.559Z,6.37
2019-02-20T06:43:10.952Z,6.40
2019-02-20T06:48:16.393Z,6.43
2019-02-20T06:53:20.789Z,6.46
2019-02-20T06:58:25.177Z,6.46
2019-02-20T07:03:29.741Z,6.44
2019-02-20T07:08:46.253Z,6.43
2019-02-20T07:14:02.410Z,6.59
2019-02-20T07:19:30.727Z,6.33
2019-02-20T07:24:47.484Z,6.63
2019-02-20T07:30:02.982Z,6.70
2019-02-20T07:35:08.785Z,6.79
2019-02-20T07:40:14.257Z,6.88
2019-02-20T07:45:18.828Z,6.85
2019-02-20T07:50:23.299Z,6.87
2019-02-20T07:55:27.709Z,6.85
2019-02-20T08:00:32.060Z,7.19
2019-02-20T08:05:36.429Z,7.08
2019-02-20T08:10:40.788Z,7.00
2019-02-20T08:15:46.222Z,7.22
2019-02-20T08:20:50.577Z,7.26
2019-02-20T08:25:55.350Z,7.39
2019-02-20T08:30:59.864Z,7.34
2019-02-20T08:36:04.235Z,7.18
2019-02-20T08:41:08.658Z,7.32
2019-02-20T08:46:13.069Z,7.34
2019-02-20T08:51:17.429Z,7.34
2019-02-20T08:56:21.794Z,7.34
2019-02-20T09:01:26.263Z,7.42
2019-02-20T09:06:30.528Z,7.47
2019-02-20T09:11:34.929Z,7.60
2019-02-20T09:16:39.292Z,7.83
2019-02-20T09:21:43.998Z,7.87
2019-02-20T09:26:49.325Z,7.91
2019-02-20T09:31:53.711Z,7.99
2019-02-20T09:36:58.116Z,8.16
2019-02-20T09:42:02.789Z,8.16
2019-02-20T09:52:10.490Z,8.31
2019-02-20T09:57:14.931Z,8.71
2019-02-20T10:02:19.323Z,8.45
2019-02-20T10:07:23.707Z,8.81
2019-02-20T10:12:29.898Z,8.95
2019-02-20T10:17:34.436Z,8.92
2019-02-20T10:22:39.545Z,8.91
2019-02-20T10:27:44.014Z,8.95
2019-02-20T10:32:49.455Z,9.07
2019-02-20T10:37:53.834Z,9.25
2019-02-20T10:42:58.179Z,9.13
2019-02-20T10:48:02.540Z,9.13
2019-02-20T10:53:07.115Z,9.17
2019-02-20T10:58:11.691Z,9.34
2019-02-20T11:03:16.626Z,9.33
2019-02-20T11:08:21.728Z,9.40
2019-02-20T11:13:26.598Z,9.42
2019-02-20T11:18:31.410Z,9.59
2019-02-20T11:23:35.984Z,9.59
2019-02-20T11:28:40.382Z,9.58
2019-02-20T11:33:44.821Z,9.68
2019-02-20T11:38:49.208Z,9.69
2019-02-20T11:43:53.610Z,9.67
2019-02-20T11:48:58.414Z,9.69
2019-02-20T11:54:03.029Z,9.71
2019-02-20T11:59:07.429Z,9.85
2019-02-20T12:04:11.806Z,9.75
2019-02-20T12:09:16.462Z,9.90
2019-02-20T12:14:24.030Z,9.89
2019-02-20T12:19:26.971Z,10.04
2019-02-20T12:24:32.858Z,10.32
2019-02-20T12:29:37.490Z,10.11
2019-02-20T12:34:41.863Z,9.98
2019-02-20T12:39:46.250Z,10.20
2019-02-20T12:44:50.639Z,10.19
2019-02-20T12:49:55.007Z,10.26
2019-02-20T12:54:59.392Z,9.96
2019-02-20T13:00:05.770Z,10.04
2019-02-20T13:05:11.854Z,10.13
2019-02-20T13:10:16.282Z,10.10
2019-02-20T13:15:20.949Z,10.19
2019-02-20T13:20:25.321Z,10.26
2019-02-20T13:25:29.696Z,10.39
2019-02-20T13:30:34.054Z,10.31
2019-02-20T13:35:38.481Z,10.23
2019-02-20T13:40:42.844Z,10.46
2019-02-20T13:45:47.313Z,10.46
2019-02-20T13:50:51.759Z,10.26
2019-02-20T13:55:56.275Z,10.18
2019-02-20T14:01:01.034Z,10.07
2019-02-20T14:06:05.547Z,10.08
2019-02-20T14:11:09.966Z,10.13
2019-02-20T14:16:14.920Z,10.09
2019-02-20T14:21:19.433Z,10.04
2019-02-20T14:26:30.565Z,10.10
2019-02-20T14:31:35.006Z,10.00
2019-02-20T14:36:39.434Z,9.89
2019-02-20T14:41:44.049Z,9.96
2019-02-20T14:46:48.420Z,9.94
2019-02-20T14:51:52.840Z,9.84
2019-02-20T14:56:57.192Z,9.82
2019-02-20T15:02:01.594Z,9.97
2019-02-20T15:07:05.968Z,9.91
2019-02-20T15:12:10.419Z,9.91
2019-02-20T15:17:14.972Z,9.75
2019-02-20T15:22:19.368Z,9.80
2019-02-20T15:27:28.618Z,9.80
2019-02-20T15:32:29.842Z,9.84
2019-02-20T15:37:34.212Z,9.90
2019-02-20T15:42:38.617Z,9.80
2019-02-20T15:47:43.088Z,9.80
2019-02-20T15:52:47.810Z,9.69
2019-02-20T15:57:52.243Z,9.55
2019-02-20T16:02:56.686Z,9.62
2019-02-20T16:08:01.135Z,9.37
2019-02-20T16:13:05.602Z,9.22
2019-02-20T16:18:10.344Z,9.02
2019-02-20T16:23:14.683Z,9.08
2019-02-20T16:28:19.144Z,8.96
2019-02-20T16:33:23.531Z,8.85
2019-02-20T16:38:27.922Z,8.73
2019-02-20T16:43:32.664Z,8.56
2019-02-20T16:48:37.077Z,8.56
2019-02-20T16:53:41.440Z,8.61
2019-02-20T16:58:45.866Z,8.38
2019-02-20T17:03:50.242Z,8.53
2019-02-20T17:08:54.975Z,8.39
2019-02-20T17:13:59.355Z,8.41
2019-02-20T17:19:03.719Z,8.45
2019-02-20T17:24:08.088Z,8.42
2019-02-20T17:29:12.443Z,8.41
2019-02-20T17:34:17.090Z,8.49
2019-02-20T17:39:21.438Z,8.02
2019-02-20T17:44:25.900Z,8.16
2019-02-20T17:49:30.840Z,8.19
2019-02-20T17:54:35.316Z,8.16
2019-02-20T17:59:39.653Z,8.33
2019-02-20T18:04:44.091Z,8.22
2019-02-20T18:09:48.594Z,8.29
2019-02-20T18:14:53.035Z,8.15
2019-02-20T18:19:57.406Z,7.98
2019-02-20T18:25:01.916Z,7.87
2019-02-20T18:30:09.877Z,7.77
2019-02-20T18:35:18.874Z,7.63
2019-02-20T18:40:23.486Z,7.58
2019-02-20T18:45:28.020Z,7.37
2019-02-20T18:50:32.534Z,7.40
2019-02-20T18:55:36.940Z,7.22
2019-02-20T19:00:41.578Z,7.22
2019-02-20T19:05:46.146Z,6.96
2019-02-20T19:10:54.244Z,6.74
2019-02-20T19:16:14.090Z,6.88
2019-02-20T19:21:33.540Z,6.30
2019-02-20T19:26:49.617Z,6.37
2019-02-20T19:32:13.383Z,6.57
2019-02-20T19:37:29.522Z,6.53
2019-02-20T19:42:43.163Z,6.60
2019-02-20T19:48:14.771Z,6.40
2019-02-20T19:53:22.548Z,6.24
2019-02-20T19:58:54.470Z,6.18
2019-02-20T20:04:06.976Z,6.14
2019-02-20T20:09:35.959Z,6.25
2019-02-20T20:14:46.369Z,6.11
2019-02-20T20:20:02.700Z,6.00
2019-02-20T20:25:25.472Z,6.09
2019-02-20T20:30:53.730Z,5.93
2019-02-20T20:36:17.407Z,6.17
2019-02-20T20:41:44.435Z,6.07
2019-02-20T20:46:54.920Z,5.94
2019-02-20T20:52:27.879Z,6.01
2019-02-20T20:57:52.054Z,5.73
2019-02-20T21:02:59.772Z,6.04
2019-02-20T21:08:07.450Z,6.00
2019-02-20T21:13:23.941Z,6.10
2019-02-20T21:18:55.663Z,6.10
2019-02-20T21:24:03.233Z,6.14
2019-02-20T21:29:28.975Z,6.53
2019-02-20T21:35:06.365Z,6.10
2019-02-20T21:40:28.974Z,6.17
2019-02-20T21:45:48.182Z,5.99
2019-02-20T21:51:10.348Z,5.96
2019-02-20T21:56:29.710Z,5.96
2019-02-20T22:01:46.025Z,5.87
2019-02-20T22:07:16.269Z,5.67
2019-02-20T22:12:50.570Z,5.75
2019-02-20T22:18:03.871Z,5.70
2019-02-20T22:23:11.389Z,5.74
2019-02-20T22:28:39.837Z,5.57
2019-02-20T22:33:59.605Z,5.55
2019-02-20T22:39:36.235Z,5.68
2019-02-20T22:45:15.713Z,5.77
2019-02-20T22:50:23.428Z,5.73
2019-02-20T22:55:39.976Z,5.68
2019-02-20T23:01:12.301Z,5.68
2019-02-20T23:06:33.624Z,5.75
2019-02-20T23:12:02.039Z,5.72
2019-02-20T23:17:06.603Z,5.67
2019-02-20T23:22:10.959Z,5.73
2019-02-20T23:27:15.347Z,5.53
2019-02-20T23:32:19.705Z,5.52
2019-02-20T23:37:24.085Z,5.56
2019-02-20T23:42:28.462Z,5.63
2019-02-20T23:47:32.861Z,5.53
2019-02-20T23:52:37.231Z,5.64
2019-02-20T23:57:41.640Z,5.64
